Tallassee, Alabama
Current Conditions -  °F | °C
As of 3:35 AM on Monday 24 Nov 2014 (Local Time) from KALX Reporting Station
Overcast Overcast  
Wind Chill: 69°   Ceiling: 1400
Heat Index: 69°   Visibility: 10mi
Dew Point: 63°   Wind: 9mph
Humidity: 79%   Direction: 220°SW
Pressure: 29.75"   Gusts: 18mph
Location:  32.54°N, 85.89°W
Report Text: KALX 240935Z AUTO 22008G16KT 10SM BKN014 OVC019 21/17 A2975 RMK AO2 T02070170
Loading
Personal Weather Stations






























Interactive Weather Map New forecast layout! Learn more

10-Day Weather Forecast

Advertisements
Track Severe Weather on mobile